Time;durP1;ratioP1;P1;durP2;ratioP2;P2;SDS_P1;SDS_P2;PMS_P1;PMS_P2;Temp;Humidity;BMP_temperature;BMP_pressure;BME280_temperature;BME280_humidity;BME280_pressure;Samples;Min_cycle;Max_cycle;Signal;HPM_P1;HPM_P2
2023/05/28 00:01:03;;;;;;;2.33;1.52;;;20.60;93.30;;;;;;5112609;27;20205;-84
2023/05/28 00:03:32;;;;;;;2.17;1.48;;;20.60;93.10;;;;;;5106010;27;20213;-83
2023/05/28 00:06:01;;;;;;;2.88;1.75;;;20.50;93.20;;;;;;5105239;27;20224;-83
2023/05/28 00:08:30;;;;;;;3.60;2.07;;;20.50;93.10;;;;;;5106357;27;20205;-84
2023/05/28 00:11:01;;;;;;;2.93;1.50;;;20.50;93.00;;;;;;5101206;28;20197;-83
2023/05/28 00:13:32;;;;;;;3.47;1.58;;;20.50;93.00;;;;;;5097969;28;20217;-83
2023/05/28 00:16:01;;;;;;;1.67;1.42;;;20.50;92.90;;;;;;5100084;28;20204;-83
2023/05/28 00:18:30;;;;;;;1.50;1.20;;;20.50;92.90;;;;;;5103468;27;20197;-84
2023/05/28 00:20:58;;;;;;;1.92;1.55;;;20.50;93.00;;;;;;5105875;28;20220;-83
2023/05/28 00:23:27;;;;;;;3.78;1.88;;;20.50;93.00;;;;;;5103700;28;20217;-84
2023/05/28 00:25:57;;;;;;;2.03;1.10;;;20.50;92.90;;;;;;5115000;28;20184;-83
2023/05/28 00:28:26;;;;;;;3.08;1.88;;;20.50;92.80;;;;;;5105656;28;20193;-84
2023/05/28 00:30:54;;;;;;;3.97;1.50;;;20.50;92.80;;;;;;5104106;28;20193;-86
2023/05/28 00:33:25;;;;;;;2.17;1.17;;;20.50;92.70;;;;;;5110988;28;20633;-84
2023/05/28 00:35:56;;;;;;;2.17;1.10;;;20.50;92.70;;;;;;5109019;28;20193;-84
2023/05/28 00:38:26;;;;;;;1.53;1.37;;;20.50;92.60;;;;;;5101149;28;20205;-85
2023/05/28 00:40:55;;;;;;;2.58;1.13;;;20.50;92.80;;;;;;5114239;28;20234;-85
2023/05/28 00:43:25;;;;;;;3.70;1.70;;;20.50;92.70;;;;;;5123953;28;20196;-84
2023/05/28 00:45:57;;;;;;;3.60;1.55;;;20.50;92.70;;;;;;5110542;28;20242;-85
2023/05/28 00:48:26;;;;;;;1.20;1.00;;;20.50;92.70;;;;;;5100652;28;20550;-86
2023/05/28 00:50:55;;;;;;;1.73;1.10;;;20.50;92.70;;;;;;5104721;28;20268;-85
2023/05/28 00:53:25;;;;;;;2.58;1.27;;;20.50;92.70;;;;;;5115000;28;20197;-84
2023/05/28 00:55:55;;;;;;;2.75;1.40;;;20.50;92.80;;;;;;5105482;28;20184;-85
2023/05/28 00:58:26;;;;;;;2.07;1.10;;;20.50;92.70;;;;;;5112268;28;20244;-85
2023/05/28 01:00:55;;;;;;;3.00;1.42;;;20.50;92.80;;;;;;5104541;28;20210;-84
2023/05/28 01:03:23;;;;;;;3.83;1.80;;;20.50;92.80;;;;;;5113826;28;20196;-85
2023/05/28 01:05:52;;;;;;;1.93;1.40;;;20.50;92.70;;;;;;5103843;28;20198;-84
2023/05/28 01:08:21;;;;;;;1.73;1.07;;;20.50;92.80;;;;;;5112335;28;20268;-85
2023/05/28 01:10:50;;;;;;;1.75;1.13;;;20.40;92.70;;;;;;5112799;28;20198;-83
2023/05/28 01:13:19;;;;;;;3.43;1.40;;;20.50;92.80;;;;;;5101355;28;20198;-84
2023/05/28 01:15:50;;;;;;;2.20;1.67;;;20.50;92.90;;;;;;5102908;28;20201;-85
2023/05/28 01:18:19;;;;;;;2.73;1.70;;;20.40;92.90;;;;;;5107684;28;20192;-84
2023/05/28 01:20:48;;;;;;;2.67;1.30;;;20.40;93.00;;;;;;5109636;28;20216;-84
2023/05/28 01:23:22;;;;;;;3.97;1.77;;;20.40;93.00;;;;;;5100588;28;20228;-84
2023/05/28 01:25:55;;;;;;;1.80;1.03;;;20.40;93.00;;;;;;5106059;28;20180;-84
2023/05/28 01:28:24;;;;;;;3.10;1.70;;;20.40;93.00;;;;;;5111077;28;20185;-85
2023/05/28 01:30:52;;;;;;;1.83;1.10;;;20.40;93.00;;;;;;5099475;28;20194;-81
2023/05/28 01:33:22;;;;;;;1.47;1.10;;;20.40;93.20;;;;;;5111663;28;20551;-83
2023/05/28 01:35:55;;;;;;;7.80;1.80;;;20.40;93.20;;;;;;5104150;28;20228;-87
2023/05/28 01:38:26;;;;;;;1.97;1.03;;;20.40;93.30;;;;;;5110978;27;20264;-83
2023/05/28 01:40:57;;;;;;;3.97;2.07;;;20.40;93.30;;;;;;5105328;27;20288;-86
2023/05/28 01:43:26;;;;;;;2.60;1.90;;;20.30;93.30;;;;;;5114140;27;20302;-84
2023/05/28 01:45:55;;;;;;;2.83;1.73;;;20.30;93.30;;;;;;5118587;27;20200;-83
2023/05/28 01:48:25;;;;;;;3.07;1.60;;;20.30;93.30;;;;;;5109480;27;20201;-85
2023/05/28 01:50:54;;;;;;;2.45;1.50;;;20.40;93.30;;;;;;5109711;27;20194;-83
2023/05/28 01:53:24;;;;;;;3.47;1.60;;;20.30;93.30;;;;;;5114660;27;20203;-83
2023/05/28 01:55:55;;;;;;;2.83;1.33;;;20.30;93.20;;;;;;5110577;27;20276;-84
2023/05/28 01:58:27;;;;;;;3.50;1.43;;;20.40;93.20;;;;;;5117440;27;20189;-84
2023/05/28 02:01:06;;;;;;;4.60;1.70;;;20.40;93.30;;;;;;5107039;27;20220;-85
2023/05/28 02:03:35;;;;;;;3.25;1.50;;;20.40;93.30;;;;;;5104772;27;20193;-84
2023/05/28 02:06:05;;;;;;;2.20;1.33;;;20.40;93.30;;;;;;5111129;27;20195;-84
2023/05/28 02:08:33;;;;;;;2.78;1.40;;;20.40;93.30;;;;;;5115509;27;20605;-85
2023/05/28 02:11:02;;;;;;;2.67;1.63;;;20.40;93.30;;;;;;5119432;27;20211;-84
2023/05/28 02:13:33;;;;;;;3.13;1.55;;;20.40;93.30;;;;;;5112436;27;20170;-85
2023/05/28 02:16:01;;;;;;;2.17;1.27;;;20.40;93.30;;;;;;5110077;27;20673;-84
2023/05/28 02:18:30;;;;;;;4.03;1.50;;;20.40;93.20;;;;;;5117499;27;20902;-84
2023/05/28 02:20:59;;;;;;;1.57;1.10;;;20.40;93.20;;;;;;5113167;27;20220;-84
2023/05/28 02:23:27;;;;;;;1.93;1.30;;;20.40;93.20;;;;;;5114525;27;20228;-83
2023/05/28 02:25:56;;;;;;;2.43;1.73;;;20.50;93.20;;;;;;5103117;27;20206;-83
2023/05/28 02:28:25;;;;;;;2.83;1.77;;;20.50;93.20;;;;;;5107665;27;20684;-84
2023/05/28 02:30:55;;;;;;;3.37;1.80;;;20.50;93.10;;;;;;5105906;27;20649;-83
2023/05/28 02:33:23;;;;;;;3.37;1.80;;;20.40;93.20;;;;;;5115178;27;20203;-83
2023/05/28 02:35:52;;;;;;;2.65;1.85;;;20.40;93.20;;;;;;5107085;27;20197;-84
2023/05/28 02:38:21;;;;;;;4.13;2.10;;;20.40;93.10;;;;;;5114966;27;20197;-84
2023/05/28 02:40:49;;;;;;;2.40;1.53;;;20.40;93.10;;;;;;5118053;27;20220;-84
2023/05/28 02:43:17;;;;;;;3.17;1.83;;;20.40;93.20;;;;;;5115127;27;20203;-85
2023/05/28 02:45:46;;;;;;;2.63;1.73;;;20.40;93.20;;;;;;5105056;28;20204;-84
2023/05/28 02:48:16;;;;;;;1.97;1.40;;;20.40;93.30;;;;;;5115767;27;20668;-83
2023/05/28 02:50:44;;;;;;;1.37;1.17;;;20.40;93.30;;;;;;5103568;27;20181;-83
2023/05/28 02:53:13;;;;;;;3.53;1.77;;;20.40;93.30;;;;;;5120427;27;20189;-84
2023/05/28 02:55:42;;;;;;;2.47;1.43;;;20.40;93.30;;;;;;5106402;27;20706;-85
2023/05/28 02:58:10;;;;;;;3.43;1.47;;;20.40;93.30;;;;;;5111165;27;20554;-85
2023/05/28 03:00:38;;;;;;;3.80;2.00;;;20.40;93.30;;;;;;5114927;27;20224;-84
2023/05/28 03:03:08;;;;;;;1.63;1.38;;;20.40;93.30;;;;;;5115433;27;20202;-85
2023/05/28 03:05:38;;;;;;;2.10;1.43;;;20.50;93.30;;;;;;5116445;27;20204;-84
2023/05/28 03:08:06;;;;;;;1.53;1.13;;;20.50;93.30;;;;;;5108858;27;20192;-85
2023/05/28 03:10:35;;;;;;;3.80;1.60;;;20.50;93.30;;;;;;5113100;27;20643;-84
2023/05/28 03:13:04;;;;;;;3.37;1.43;;;20.40;93.30;;;;;;5123798;27;20205;-84
2023/05/28 03:15:32;;;;;;;1.57;1.27;;;20.50;93.30;;;;;;5102804;27;20653;-85
2023/05/28 03:18:01;;;;;;;2.70;1.30;;;20.40;93.30;;;;;;5107345;27;20195;-85
2023/05/28 03:20:30;;;;;;;3.20;1.30;;;20.50;93.30;;;;;;5109297;27;20688;-85
2023/05/28 03:23:01;;;;;;;1.85;1.25;;;20.50;93.30;;;;;;5108465;27;20661;-84
2023/05/28 03:25:30;;;;;;;4.40;2.40;;;20.50;93.30;;;;;;5112105;27;20242;-86
2023/05/28 03:27:59;;;;;;;3.50;2.00;;;20.50;93.30;;;;;;5113366;27;20193;-83
2023/05/28 03:30:27;;;;;;;3.23;1.60;;;20.50;93.30;;;;;;5115325;27;20678;-83
2023/05/28 03:32:55;;;;;;;2.80;1.47;;;20.50;93.30;;;;;;5118710;27;20308;-86
2023/05/28 03:35:24;;;;;;;2.55;1.95;;;20.50;93.30;;;;;;5107757;27;20198;-85
2023/05/28 03:37:52;;;;;;;2.67;1.73;;;20.50;93.30;;;;;;5110321;27;20529;-85
2023/05/28 03:40:23;;;;;;;2.90;2.20;;;20.50;93.30;;;;;;5107803;27;20217;-85
2023/05/28 03:42:51;;;;;;;1.30;1.00;;;20.60;93.40;;;;;;5113941;27;20280;-84
2023/05/28 03:45:20;;;;;;;3.30;1.90;;;20.50;93.30;;;;;;5109547;28;20200;-86
2023/05/28 03:47:49;;;;;;;3.07;1.80;;;20.60;93.40;;;;;;5107472;28;20280;-85
2023/05/28 03:50:18;;;;;;;4.28;2.08;;;20.50;93.30;;;;;;5111352;27;20280;-86
2023/05/28 03:52:46;;;;;;;3.72;1.90;;;20.60;93.40;;;;;;5113384;27;20189;-84
2023/05/28 03:55:16;;;;;;;3.63;1.50;;;20.60;93.40;;;;;;5101545;27;20197;-86
2023/05/28 03:57:46;;;;;;;4.00;1.63;;;20.60;93.50;;;;;;5108220;28;20197;-85
2023/05/28 04:00:16;;;;;;;2.73;1.30;;;20.60;93.60;;;;;;5110150;27;20272;-83
2023/05/28 04:02:45;;;;;;;2.42;1.25;;;20.60;93.60;;;;;;5119988;27;20539;-84
2023/05/28 04:05:13;;;;;;;3.55;2.00;;;20.60;93.50;;;;;;5113018;27;20557;-85
2023/05/28 04:07:42;;;;;;;7.97;1.98;;;20.60;93.50;;;;;;5124184;27;20533;-85
2023/05/28 04:10:11;;;;;;;3.30;1.58;;;20.60;93.60;;;;;;5096237;28;20658;-85
2023/05/28 04:12:40;;;;;;;2.37;1.63;;;20.60;93.50;;;;;;5122677;27;20189;-86
2023/05/28 04:15:11;;;;;;;2.22;1.60;;;20.60;93.60;;;;;;5105652;28;20202;-85
2023/05/28 04:17:40;;;;;;;5.20;1.90;;;20.70;93.60;;;;;;5104050;28;20198;-85
2023/05/28 04:20:10;;;;;;;2.63;1.73;;;20.70;93.50;;;;;;5104562;27;20760;-85
2023/05/28 04:22:38;;;;;;;4.53;2.65;;;20.70;93.50;;;;;;5112238;28;20712;-85
2023/05/28 04:25:09;;;;;;;3.03;1.60;;;20.70;93.50;;;;;;5109254;28;20208;-84
2023/05/28 04:27:40;;;;;;;2.78;1.55;;;20.70;93.50;;;;;;5104635;28;20198;-84
2023/05/28 04:30:17;;;;;;;3.22;1.73;;;20.70;93.40;;;;;;5106448;28;20197;-85
2023/05/28 04:32:46;;;;;;;2.65;1.40;;;20.80;93.40;;;;;;5111590;28;20208;-86
2023/05/28 04:35:14;;;;;;;2.45;1.58;;;20.80;93.40;;;;;;5098716;28;20484;-85
2023/05/28 04:37:44;;;;;;;2.90;1.30;;;20.80;93.50;;;;;;5105693;28;20242;-85
2023/05/28 04:40:13;;;;;;;3.45;2.05;;;20.80;93.50;;;;;;5107712;28;20288;-86
2023/05/28 04:42:42;;;;;;;2.83;1.65;;;20.80;93.40;;;;;;5098136;28;20211;-86
2023/05/28 04:45:13;;;;;;;3.78;1.63;;;20.80;93.40;;;;;;5118271;28;20637;-86
2023/05/28 04:47:42;;;;;;;3.38;1.63;;;20.90;93.40;;;;;;5112912;28;20200;-85
2023/05/28 04:50:11;;;;;;;6.53;2.75;;;20.90;93.40;;;;;;5112685;28;20193;-86
2023/05/28 04:52:41;;;;;;;4.53;2.78;;;20.90;93.30;;;;;;5140692;27;20744;-85
2023/05/28 04:55:11;;;;;;;3.80;1.83;;;20.90;93.30;;;;;;5122516;27;20201;-86
2023/05/28 04:57:40;;;;;;;4.72;2.05;;;21.00;93.30;;;;;;5120779;28;20219;-83
2023/05/28 05:00:12;;;;;;;5.63;2.38;;;21.00;93.30;;;;;;5112573;28;20211;-84
2023/05/28 05:02:43;;;;;;;5.55;2.33;;;21.00;93.30;;;;;;5115834;28;20283;-84
2023/05/28 05:05:12;;;;;;;4.32;2.45;;;21.00;93.30;;;;;;5116288;28;20251;-84
2023/05/28 05:07:41;;;;;;;4.15;2.25;;;21.10;93.30;;;;;;5104860;28;20176;-86
2023/05/28 05:10:11;;;;;;;2.83;1.75;;;21.10;93.30;;;;;;5105081;28;20667;-86
2023/05/28 05:12:40;;;;;;;6.03;2.33;;;21.10;93.30;;;;;;5115722;27;20711;-86
2023/05/28 05:15:10;;;;;;;3.90;1.60;;;21.10;93.20;;;;;;5112377;27;20697;-86
2023/05/28 05:17:39;;;;;;;2.05;1.60;;;21.20;93.20;;;;;;5119977;27;20200;-85
2023/05/28 05:20:11;;;;;;;3.83;1.92;;;21.20;93.20;;;;;;5116921;27;20973;-85
2023/05/28 05:22:40;;;;;;;2.00;1.40;;;21.20;93.10;;;;;;5108056;27;20749;-84
2023/05/28 05:25:11;;;;;;;2.83;1.92;;;21.30;93.10;;;;;;5127964;27;20205;-87
2023/05/28 05:27:40;;;;;;;3.13;2.03;;;21.30;93.10;;;;;;5120521;27;20193;-86
2023/05/28 05:30:10;;;;;;;11.68;1.85;;;21.30;93.00;;;;;;5119964;27;20193;-85
2023/05/28 05:32:38;;;;;;;12.45;1.85;;;21.30;93.00;;;;;;5120672;27;20201;-85
2023/05/28 05:35:10;;;;;;;3.17;2.10;;;21.30;92.90;;;;;;5111937;27;20276;-85
2023/05/28 05:37:38;;;;;;;3.85;1.63;;;21.40;92.90;;;;;;5109568;27;20635;-85
2023/05/28 05:40:08;;;;;;;2.10;1.52;;;21.40;92.90;;;;;;5118879;27;20204;-84
2023/05/28 05:42:37;;;;;;;2.92;1.90;;;21.40;92.70;;;;;;5112490;27;20214;-84
2023/05/28 05:45:07;;;;;;;6.18;2.42;;;21.40;92.50;;;;;;5103754;27;20193;-81
2023/05/28 05:47:36;;;;;;;4.20;2.30;;;21.50;92.30;;;;;;5118100;27;20192;-84
2023/05/28 05:50:05;;;;;;;7.20;2.67;;;21.50;92.10;;;;;;5112961;27;20190;-86
2023/05/28 05:52:36;;;;;;;5.00;2.20;;;21.50;91.90;;;;;;5109214;27;20281;-84
2023/05/28 05:55:05;;;;;;;2.70;1.48;;;21.50;91.90;;;;;;5118309;27;20198;-85
2023/05/28 05:57:36;;;;;;;4.68;2.03;;;21.50;91.60;;;;;;5102763;27;20186;-85
2023/05/28 06:00:08;;;;;;;5.47;1.95;;;21.60;92.00;;;;;;5109139;27;20193;-85
2023/05/28 06:02:37;;;;;;;3.55;2.28;;;21.60;91.60;;;;;;5111719;27;20208;-85
2023/05/28 06:05:06;;;;;;;5.05;2.08;;;21.60;91.50;;;;;;5106979;28;20657;-83
2023/05/28 06:07:37;;;;;;;3.58;2.28;;;21.60;91.50;;;;;;5105742;27;20259;-87
2023/05/28 06:10:06;;;;;;;3.75;1.83;;;21.70;91.40;;;;;;5101373;27;20190;-86
2023/05/28 06:12:36;;;;;;;2.80;1.63;;;21.70;91.10;;;;;;5114907;27;20600;-87
2023/05/28 06:15:06;;;;;;;3.30;1.75;;;21.70;90.70;;;;;;5114506;27;20201;-85
2023/05/28 06:17:35;;;;;;;3.55;2.17;;;21.70;90.30;;;;;;5104149;27;20246;-86
2023/05/28 06:20:06;;;;;;;2.58;1.50;;;21.80;89.90;;;;;;5098320;27;20296;-85
2023/05/28 06:22:36;;;;;;;3.92;1.80;;;21.80;90.10;;;;;;5123044;27;20590;-89
2023/05/28 06:25:06;;;;;;;2.90;1.55;;;21.80;90.00;;;;;;5103268;27;20205;-88
2023/05/28 06:27:36;;;;;;;4.93;1.98;;;21.90;89.70;;;;;;5106899;27;20184;-86
2023/05/28 06:30:05;;;;;;;2.15;1.50;;;21.90;90.00;;;;;;5108678;27;20194;-86
2023/05/28 06:32:34;;;;;;;6.78;2.70;;;21.90;89.20;;;;;;5113816;27;20216;-86
2023/05/28 06:35:04;;;;;;;5.10;2.40;;;22.00;88.40;;;;;;5105605;27;20224;-85
2023/05/28 06:37:32;;;;;;;3.58;2.25;;;21.90;87.00;;;;;;5110898;27;20193;-84
2023/05/28 06:40:05;;;;;;;2.50;1.67;;;22.00;86.90;;;;;;5114364;27;20198;-87
2023/05/28 06:42:34;;;;;;;2.90;1.90;;;22.00;86.40;;;;;;5098764;28;20658;-86
2023/05/28 06:45:03;;;;;;;1.95;1.23;;;22.00;86.60;;;;;;5110851;27;20203;-84
2023/05/28 06:47:32;;;;;;;4.60;2.17;;;22.00;85.80;;;;;;5116286;27;20646;-87
2023/05/28 06:50:01;;;;;;;5.40;2.08;;;22.10;86.10;;;;;;5119989;27;20198;-85
2023/05/28 06:52:33;;;;;;;6.25;1.80;;;22.10;86.20;;;;;;5125723;27;20196;-88
2023/05/28 06:55:05;;;;;;;4.22;1.50;;;22.20;85.80;;;;;;5111085;27;20269;-87
2023/05/28 06:57:34;;;;;;;4.35;1.83;;;22.30;85.40;;;;;;5124922;27;20280;-85
2023/05/28 07:00:08;;;;;;;3.35;1.73;;;22.30;85.00;;;;;;5121413;27;20202;-86
2023/05/28 07:02:37;;;;;;;3.55;1.83;;;22.40;84.90;;;;;;5124773;27;20673;-87
2023/05/28 07:05:07;;;;;;;3.42;2.22;;;22.40;83.30;;;;;;5123226;27;20251;-88
2023/05/28 07:07:36;;;;;;;5.25;2.00;;;22.30;81.90;;;;;;5111650;27;20193;-87
2023/05/28 07:10:08;;;;;;;2.58;1.60;;;22.50;83.00;;;;;;5117200;27;20220;-89
2023/05/28 07:12:37;;;;;;;3.33;1.85;;;22.50;83.00;;;;;;5122305;27;20188;-88
2023/05/28 07:15:07;;;;;;;2.92;1.48;;;22.60;83.60;;;;;;5115512;27;20189;-88
2023/05/28 07:17:36;;;;;;;2.70;1.50;;;22.60;83.50;;;;;;5130367;27;20280;-88
2023/05/28 07:20:06;;;;;;;3.30;1.33;;;22.70;83.60;;;;;;5128702;27;20197;-86
2023/05/28 07:22:35;;;;;;;3.42;2.40;;;22.80;83.90;;;;;;5114621;28;20229;-89
2023/05/28 07:25:04;;;;;;;2.55;1.42;;;22.90;83.90;;;;;;5122738;27;20193;-89
2023/05/28 07:27:34;;;;;;;3.28;1.90;;;22.90;82.10;;;;;;5112377;28;20646;-90
2023/05/28 07:30:03;;;;;;;5.13;1.60;;;22.90;82.20;;;;;;5108597;28;20199;-87
2023/05/28 07:32:31;;;;;;;3.10;1.30;;;22.90;81.00;;;;;;5100883;28;20535;-88
2023/05/28 07:35:00;;;;;;;4.43;2.67;;;23.00;81.90;;;;;;5111334;28;20192;-87
2023/05/28 07:37:29;;;;;;;6.35;1.45;;;23.00;81.10;;;;;;5116132;27;20193;-88
2023/05/28 07:39:57;;;;;;;2.95;1.50;;;22.90;80.70;;;;;;5093944;28;20196;-88
2023/05/28 07:42:26;;;;;;;2.30;1.42;;;23.00;80.70;;;;;;5121273;27;20200;-90
2023/05/28 07:44:59;;;;;;;2.92;1.55;;;23.00;80.00;;;;;;5108805;28;20185;-89
2023/05/28 07:47:28;;;;;;;3.60;1.48;;;23.00;80.40;;;;;;5109540;28;20242;-89
2023/05/28 07:49:56;;;;;;;3.92;1.95;;;23.10;80.50;;;;;;5108050;28;20554;-88
2023/05/28 07:52:29;;;;;;;3.10;1.63;;;23.10;80.70;;;;;;5108749;28;20193;-89
2023/05/28 07:54:59;;;;;;;3.88;1.33;;;23.10;79.70;;;;;;5112670;27;20313;-89
2023/05/28 07:57:28;;;;;;;4.85;1.75;;;23.20;80.10;;;;;;5124351;27;20190;-87
2023/05/28 07:59:57;;;;;;;6.90;2.03;;;23.20;80.10;;;;;;5106607;28;20200;-86
2023/05/28 08:02:28;;;;;;;6.10;2.33;;;23.30;80.20;;;;;;5098202;27;20213;-89
2023/05/28 08:04:57;;;;;;;3.05;1.58;;;23.30;79.60;;;;;;5111746;27;20193;-86
2023/05/28 08:07:28;;;;;;;3.65;1.70;;;23.30;79.60;;;;;;5106542;27;20201;-86
2023/05/28 08:09:56;;;;;;;3.50;1.80;;;23.40;78.90;;;;;;5108525;28;20188;-85
2023/05/28 08:12:25;;;;;;;5.38;2.33;;;23.40;78.60;;;;;;5102479;28;20204;-88
2023/05/28 08:14:55;;;;;;;4.00;2.17;;;23.50;79.10;;;;;;5109207;28;20210;-87
2023/05/28 08:17:24;;;;;;;2.28;1.70;;;23.60;79.00;;;;;;5102722;28;20222;-86
2023/05/28 08:19:56;;;;;;;3.05;1.60;;;23.60;77.50;;;;;;5100279;27;20280;-85
2023/05/28 08:22:29;;;;;;;5.13;1.70;;;23.60;76.80;;;;;;5108572;27;20723;-89
2023/05/28 08:24:58;;;;;;;2.67;1.45;;;23.60;77.20;;;;;;5104840;28;20205;-87
2023/05/28 08:27:27;;;;;;;2.75;1.58;;;23.70;76.80;;;;;;5106212;28;20185;-87
2023/05/28 08:29:56;;;;;;;2.78;1.73;;;23.70;75.80;;;;;;5110862;28;20185;-89
2023/05/28 08:32:24;;;;;;;2.85;1.55;;;23.70;75.80;;;;;;5111315;28;20192;-87
2023/05/28 08:34:55;;;;;;;3.28;1.60;;;23.70;74.10;;;;;;5110565;28;20198;-85
2023/05/28 08:37:24;;;;;;;2.33;1.50;;;23.70;74.90;;;;;;5099895;28;20190;-83
2023/05/28 08:39:55;;;;;;;3.35;1.83;;;23.60;74.40;;;;;;5111288;28;20191;-85
2023/05/28 08:42:23;;;;;;;3.03;1.73;;;23.70;75.20;;;;;;5103095;28;20197;-88
2023/05/28 08:44:53;;;;;;;6.57;2.35;;;23.70;75.30;;;;;;5107512;28;20249;-90
2023/05/28 08:47:25;;;;;;;2.63;1.70;;;23.70;75.30;;;;;;5110978;27;20242;-88
2023/05/28 08:49:56;;;;;;;3.83;1.30;;;23.80;76.10;;;;;;5123711;27;20189;-88
2023/05/28 08:52:26;;;;;;;2.95;1.77;;;23.80;75.80;;;;;;5111481;28;20550;-91
2023/05/28 08:54:54;;;;;;;5.55;2.22;;;24.00;76.30;;;;;;5115726;28;20189;-91
2023/05/28 08:57:25;;;;;;;2.17;1.20;;;24.00;76.60;;;;;;5125178;27;20178;-87
2023/05/28 08:59:54;;;;;;;2.97;1.63;;;24.10;76.40;;;;;;5110894;27;20185;-89
2023/05/28 09:02:25;;;;;;;3.20;1.45;;;24.10;76.30;;;;;;5117972;27;20196;-88
2023/05/28 09:04:57;;;;;;;5.00;1.75;;;24.10;75.20;;;;;;5116381;27;20240;-88
2023/05/28 09:07:26;;;;;;;3.00;1.70;;;24.10;75.80;;;;;;5111294;27;20201;-85
2023/05/28 09:09:58;;;;;;;3.97;1.90;;;24.10;75.90;;;;;;5114477;27;20276;-86
2023/05/28 09:12:26;;;;;;;3.97;1.73;;;24.10;76.10;;;;;;5111925;28;20189;-88
2023/05/28 09:14:55;;;;;;;2.72;1.70;;;24.20;75.80;;;;;;5115724;27;20656;-86
2023/05/28 09:17:37;;;;;;;3.03;1.58;;;24.20;76.10;;;;;;5113363;27;20202;-88
2023/05/28 09:20:15;;;;;;;4.30;1.73;;;24.20;75.70;;;;;;5130395;27;20193;-87
2023/05/28 09:22:45;;;;;;;3.83;1.63;;;24.30;75.50;;;;;;5136958;27;20220;-87
2023/05/28 09:25:14;;;;;;;3.58;1.48;;;24.40;76.00;;;;;;5113766;27;20206;-87
2023/05/28 09:27:45;;;;;;;3.47;1.90;;;24.40;75.10;;;;;;5120497;27;20189;-88
2023/05/28 09:30:15;;;;;;;3.92;1.85;;;24.50;74.80;;;;;;5111008;27;20204;-88
2023/05/28 09:32:46;;;;;;;6.00;2.33;;;24.60;74.40;;;;;;5107372;28;20643;-85
2023/05/28 09:35:17;;;;;;;6.43;2.15;;;24.60;73.30;;;;;;5109836;27;20197;-86
2023/05/28 09:37:46;;;;;;;4.05;1.73;;;24.60;72.50;;;;;;5110498;27;20196;-85
2023/05/28 09:40:17;;;;;;;3.88;1.77;;;24.60;72.30;;;;;;5115915;27;20211;-85
2023/05/28 09:42:46;;;;;;;2.55;1.73;;;24.70;72.50;;;;;;5121231;27;20188;-85
2023/05/28 09:45:25;;;;;;;3.00;1.50;;;24.70;72.70;;;;;;5106406;27;20229;-86
2023/05/28 09:47:55;;;;;;;2.80;1.98;;;24.80;72.70;;;;;;5117958;27;20184;-87
2023/05/28 09:50:25;;;;;;;2.75;1.52;;;24.70;71.00;;;;;;5107586;28;20262;-86
2023/05/28 09:52:56;;;;;;;2.47;1.52;;;24.80;72.00;;;;;;5103769;27;20206;-85
2023/05/28 09:55:26;;;;;;;5.45;1.90;;;24.90;72.20;;;;;;5109001;27;20194;-85
2023/05/28 09:58:02;;;;;;;3.35;1.98;;;24.90;72.50;;;;;;5106092;27;20194;-88
2023/05/28 10:00:36;;;;;;;3.28;1.75;;;25.00;72.40;;;;;;5113870;27;20193;-88
2023/05/28 10:03:17;;;;;;;4.68;2.33;;;25.00;71.30;;;;;;5104094;27;20195;-91
2023/05/28 10:05:52;;;;;;;2.78;1.98;;;25.00;70.80;;;;;;5100519;28;20229;-86
2023/05/28 10:08:24;;;;;;;3.90;1.65;;;25.10;71.20;;;;;;5115035;27;20629;-87
2023/05/28 10:10:54;;;;;;;3.83;1.77;;;25.10;71.20;;;;;;5106795;27;20189;-86
2023/05/28 10:13:24;;;;;;;4.32;1.70;;;25.10;70.80;;;;;;5114540;27;20207;-88
2023/05/28 10:15:54;;;;;;;4.03;2.20;;;25.20;71.10;;;;;;5114072;27;20204;-86
2023/05/28 10:18:25;;;;;;;5.55;2.63;;;25.20;71.00;;;;;;5113740;28;20199;-88
2023/05/28 10:20:56;;;;;;;4.00;1.83;;;25.20;71.30;;;;;;5117891;27;20192;-86
2023/05/28 10:23:26;;;;;;;9.05;2.13;;;25.30;71.80;;;;;;5119099;27;20221;-88
2023/05/28 10:25:57;;;;;;;6.40;2.53;;;25.40;71.80;;;;;;5109239;27;20256;-86
2023/05/28 10:28:26;;;;;;;3.45;2.40;;;25.40;71.90;;;;;;5144101;27;20200;-86
2023/05/28 10:31:04;;;;;;;5.22;2.35;;;25.40;70.50;;;;;;5100064;27;20186;-87
2023/05/28 10:33:33;;;;;;;5.03;2.53;;;25.40;70.10;;;;;;5125373;27;20277;-86
2023/05/28 10:36:04;;;;;;;2.17;1.52;;;25.40;70.70;;;;;;5110939;27;20200;-89
2023/05/28 10:38:43;;;;;;;6.30;1.83;;;25.40;69.70;;;;;;5123235;27;20232;-88
2023/05/28 10:41:12;;;;;;;2.08;1.40;;;25.40;70.00;;;;;;5110893;27;20228;-87
2023/05/28 10:43:43;;;;;;;2.42;1.50;;;25.40;70.40;;;;;;5113991;27;20271;-85
2023/05/28 10:46:16;;;;;;;4.45;2.33;;;25.40;69.70;;;;;;5102910;27;20240;-85
2023/05/28 10:49:06;;;;;;;3.58;2.47;;;25.40;68.80;;;;;;5112547;28;20567;-87
2023/05/28 10:52:03;;;;;;;3.70;1.80;;;25.40;68.90;;;;;;5102968;27;20189;-86
2023/05/28 10:54:45;;;;;;;4.00;2.25;;;25.40;68.80;;;;;;5139880;27;20486;-85
2023/05/28 10:57:14;;;;;;;3.97;2.60;;;25.50;69.90;;;;;;5103128;27;20228;-85
2023/05/28 10:59:48;;;;;;;4.97;2.10;;;25.60;69.90;;;;;;5102234;27;20287;-85
2023/05/28 11:02:25;;;;;;;3.83;2.08;;;25.70;69.30;;;;;;5108995;27;20196;-84
2023/05/28 11:04:55;;;;;;;3.72;1.95;;;25.80;69.30;;;;;;5108087;27;20292;-87
2023/05/28 11:07:32;;;;;;;3.15;1.85;;;25.90;70.00;;;;;;5115652;27;20197;-85
2023/05/28 11:10:03;;;;;;;3.38;1.92;;;25.90;68.60;;;;;;5112485;27;20304;-86
2023/05/28 11:12:33;;;;;;;3.03;2.00;;;25.90;68.20;;;;;;5109188;27;20194;-88
2023/05/28 11:15:02;;;;;;;4.50;2.08;;;25.80;67.60;;;;;;5110607;27;20202;-88
2023/05/28 11:17:36;;;;;;;2.67;1.73;;;25.70;67.50;;;;;;5110088;27;20285;-89
2023/05/28 11:20:05;;;;;;;5.10;2.05;;;25.70;67.00;;;;;;5110136;27;20569;-87
2023/05/28 11:22:36;;;;;;;5.40;2.17;;;25.80;67.80;;;;;;5107124;28;20590;-87
2023/05/28 11:25:08;;;;;;;3.08;1.80;;;25.90;68.00;;;;;;5104468;27;20262;-86
2023/05/28 11:27:39;;;;;;;4.47;1.60;;;25.90;68.30;;;;;;5114774;27;20193;-87
2023/05/28 11:30:11;;;;;;;3.13;2.10;;;26.00;68.00;;;;;;5105383;27;20205;-88
2023/05/28 11:32:40;;;;;;;3.20;1.80;;;26.00;67.80;;;;;;5107537;27;20196;-87
2023/05/28 11:35:12;;;;;;;2.17;1.75;;;26.00;67.50;;;;;;5109960;28;20181;-85
2023/05/28 11:37:43;;;;;;;2.60;1.63;;;26.00;67.70;;;;;;5115978;27;20653;-86
2023/05/28 11:40:13;;;;;;;2.53;1.70;;;26.00;68.30;;;;;;5101975;27;20201;-84
2023/05/28 11:42:43;;;;;;;3.78;2.20;;;26.10;69.70;;;;;;5107892;27;20198;-87
2023/05/28 11:45:13;;;;;;;3.25;2.13;;;26.00;68.10;;;;;;5118534;27;20228;-85
2023/05/28 11:47:43;;;;;;;6.47;1.98;;;26.10;68.50;;;;;;5109579;27;20205;-88
2023/05/28 11:50:14;;;;;;;4.38;2.40;;;26.20;67.90;;;;;;5111344;27;20795;-88
2023/05/28 11:52:45;;;;;;;5.75;1.92;;;26.20;67.60;;;;;;5111437;27;20242;-86
2023/05/28 11:55:16;;;;;;;3.45;2.03;;;26.40;68.20;;;;;;5108269;27;20216;-88
2023/05/28 11:57:53;;;;;;;6.28;2.58;;;26.40;67.70;;;;;;5100244;27;20185;-85
2023/05/28 12:00:32;;;;;;;7.68;2.85;;;26.50;67.50;;;;;;5106407;28;20660;-86
2023/05/28 12:03:02;;;;;;;2.42;1.83;;;26.50;68.10;;;;;;5104270;28;20193;-86
2023/05/28 12:05:38;;;;;;;3.47;2.10;;;26.60;68.20;;;;;;5097485;28;20218;-85
2023/05/28 12:08:11;;;;;;;3.83;2.30;;;26.60;67.40;;;;;;5109527;27;20247;-87
2023/05/28 12:10:40;;;;;;;3.40;1.75;;;26.70;67.60;;;;;;5105545;27;20638;-86
2023/05/28 12:13:08;;;;;;;3.88;2.17;;;26.70;66.10;;;;;;5106389;27;20197;-86
2023/05/28 12:15:40;;;;;;;4.60;2.53;;;26.70;67.70;;;;;;5104136;28;20201;-87
2023/05/28 12:18:09;;;;;;;2.58;1.98;;;26.80;67.20;;;;;;5111079;27;20279;-91
2023/05/28 12:20:41;;;;;;;3.88;2.00;;;26.80;66.80;;;;;;5114765;28;20193;-85
2023/05/28 12:23:13;;;;;;;4.45;2.13;;;26.70;65.40;;;;;;5106186;27;20244;-85
2023/05/28 12:25:48;;;;;;;5.22;1.77;;;26.80;66.80;;;;;;5105045;28;20209;-85
2023/05/28 12:28:19;;;;;;;6.28;2.40;;;26.80;66.40;;;;;;5110749;28;20192;-86
2023/05/28 12:30:50;;;;;;;5.82;2.08;;;26.80;66.80;;;;;;5110679;28;20271;-88
2023/05/28 12:33:19;;;;;;;4.03;2.03;;;26.80;66.80;;;;;;5110843;28;20193;-88
2023/05/28 12:35:48;;;;;;;3.85;2.10;;;26.80;66.50;;;;;;5121453;28;20202;-87
2023/05/28 12:38:20;;;;;;;3.95;2.10;;;26.90;65.90;;;;;;5112964;27;20219;-88
2023/05/28 12:40:49;;;;;;;5.57;1.83;;;26.90;66.20;;;;;;5128392;28;20199;-86
2023/05/28 12:43:18;;;;;;;4.07;1.73;;;26.90;65.60;;;;;;5115527;28;20825;-87
2023/05/28 12:45:47;;;;;;;3.65;1.90;;;27.00;65.50;;;;;;5125431;28;20564;-88
2023/05/28 12:48:16;;;;;;;3.47;2.28;;;27.10;66.50;;;;;;5114881;28;20705;-88
2023/05/28 12:50:45;;;;;;;3.67;2.38;;;27.10;66.10;;;;;;5103768;28;20212;-88
2023/05/28 12:53:15;;;;;;;2.65;2.00;;;27.10;65.30;;;;;;5114609;28;20258;-92
2023/05/28 12:55:45;;;;;;;4.55;2.72;;;27.10;63.70;;;;;;5114204;28;20358;-90
2023/05/28 12:58:13;;;;;;;3.30;2.40;;;27.20;64.10;;;;;;5113231;28;20212;-88
2023/05/28 13:00:42;;;;;;;4.40;1.98;;;27.20;64.50;;;;;;5104282;28;20187;-85
2023/05/28 13:03:11;;;;;;;4.43;1.95;;;27.30;65.00;;;;;;5107815;28;20216;-88